RIC weather

Richmond International Airport
Richmond, Virginia, United States

Public forecast

Using degrees Fahrenheit for public forecast. Weather courtesy of forecast.io.

METAR (pilot weather report)

Retrieved 2018/12/10 01:15 UTC (0 seconds ago):

KRIC 100115Z 02015KT 3SM -SN BR OVC008 00/M02 A3010

TAF (pilot weather forecast)

Forecast is more than 12 hours old.

Retrieved 2018/12/09 00:30 UTC (1 day ago):

TAF KRIC 092329Z 1000/1024 02012KT 1/2SM SNPL OVC006 FM100300 01012KT 2SM -SN OVC006 FM100600 01009KT 6SM -SN OVC012 FM101000 36008KT P6SM OVC060 FM101600 36008KT P6SM BKN120